METAR Data
IDs: Format: Raw Decoded Include TAF

Data at: 0200 UTC 01 Mar 2021

METAR for:K6B9 (Skaneateles Arpt, NY, US)
Text:K6B9 010155Z AUTO 17015G21KT 140V210 10SM BKN015 OVC028 05/03 A2977 RMK AO2
Temperature: 5.0°C ( 41°F)
Dewpoint: 3.0°C ( 37°F) [RH = 87%]
Pressure (altimeter):29.77 inches Hg (1008.2 mb)
Winds:from the S (170 degrees) at 17 MPH (15 knots; 7.7 m/s) gusting to 24 MPH (21 knots; 10.8 m/s)
Visibility:10 or more sm (16+ km)
Ceiling:1500 feet AGL
Clouds: broken clouds at 1500 feet AGL, overcast cloud deck at 2800 feet AGL
QC Flag:automated observation with no human augmentation
Text:K6B9 010135Z AUTO 17011G18KT 140V220 10SM BKN015 OVC028 05/03 A2980 RMK AO2
Temperature: 5.0°C ( 41°F)
Dewpoint: 3.0°C ( 37°F) [RH = 87%]
Pressure (altimeter):29.80 inches Hg (1009.2 mb)
Winds:from the S (170 degrees) at 13 MPH (11 knots; 5.7 m/s) gusting to 21 MPH (18 knots; 9.3 m/s)
Visibility:10 or more sm (16+ km)
Ceiling:1500 feet AGL
Clouds: broken clouds at 1500 feet AGL, overcast cloud deck at 2800 feet AGL
QC Flag:automated observation with no human augmentation
Text:K6B9 010115Z AUTO 16011G19KT 140V200 10SM OVC015 05/03 A2980 RMK AO2
Temperature: 5.0°C ( 41°F)
Dewpoint: 3.0°C ( 37°F) [RH = 87%]
Pressure (altimeter):29.80 inches Hg (1009.2 mb)
Winds:from the SSE (160 degrees) at 13 MPH (11 knots; 5.7 m/s) gusting to 22 MPH (19 knots; 9.8 m/s)
Visibility:10 or more sm (16+ km)
Ceiling:1500 feet AGL
Clouds: overcast cloud deck at 1500 feet AGL
QC Flag:automated observation with no human augmentation
Text:K6B9 010055Z AUTO 16009G21KT 130V190 10SM OVC015 05/03 A2982 RMK AO2
Temperature: 5.0°C ( 41°F)
Dewpoint: 3.0°C ( 37°F) [RH = 87%]
Pressure (altimeter):29.82 inches Hg (1009.9 mb)
Winds:from the SSE (160 degrees) at 10 MPH (9 knots; 4.6 m/s) gusting to 24 MPH (21 knots; 10.8 m/s)
Visibility:10 or more sm (16+ km)
Ceiling:1500 feet AGL
Clouds: overcast cloud deck at 1500 feet AGL
QC Flag:automated observation with no human augmentation
Text:K6B9 010035Z AUTO 16010G21KT 130V210 10SM BKN015 OVC026 04/03 A2983 RMK AO2
Temperature: 4.0°C ( 39°F)
Dewpoint: 3.0°C ( 37°F) [RH = 93%]
Pressure (altimeter):29.83 inches Hg (1010.2 mb)
Winds:from the SSE (160 degrees) at 12 MPH (10 knots; 5.1 m/s) gusting to 24 MPH (21 knots; 10.8 m/s)
Visibility:10 or more sm (16+ km)
Ceiling:1500 feet AGL
Clouds: broken clouds at 1500 feet AGL, overcast cloud deck at 2600 feet AGL
QC Flag:automated observation with no human augmentation
Text:K6B9 010015Z AUTO 17010G23KT 150V220 10SM BKN015 BKN026 OVC031 05/03 A2985 RMK AO2
Temperature: 5.0°C ( 41°F)
Dewpoint: 3.0°C ( 37°F) [RH = 87%]
Pressure (altimeter):29.85 inches Hg (1010.9 mb)
Winds:from the S (170 degrees) at 12 MPH (10 knots; 5.1 m/s) gusting to 26 MPH (23 knots; 11.8 m/s)
Visibility:10 or more sm (16+ km)
Ceiling:1500 feet AGL
Clouds: broken clouds at 1500 feet AGL, broken clouds at 2600 feet AGL, overcast cloud deck at 3100 feet AGL
QC Flag:automated observation with no human augmentation
Text:K6B9 282355Z AUTO 17007G16KT 120V210 10SM BKN015 OVC028 05/03 A2987 RMK AO2
Temperature: 5.0°C ( 41°F)
Dewpoint: 3.0°C ( 37°F) [RH = 87%]
Pressure (altimeter):29.87 inches Hg (1011.6 mb)
Winds:from the S (170 degrees) at 8 MPH (7 knots; 3.6 m/s) gusting to 18 MPH (16 knots; 8.2 m/s)
Visibility:10 or more sm (16+ km)
Ceiling:1500 feet AGL
Clouds: broken clouds at 1500 feet AGL, overcast cloud deck at 2800 feet AGL
QC Flag:automated observation with no human augmentation
Text:K6B9 282335Z AUTO 17007G14KT 120V210 10SM OVC015 05/03 A2988 RMK AO2
Temperature: 5.0°C ( 41°F)
Dewpoint: 3.0°C ( 37°F) [RH = 87%]
Pressure (altimeter):29.88 inches Hg (1011.9 mb)
Winds:from the S (170 degrees) at 8 MPH (7 knots; 3.6 m/s) gusting to 16 MPH (14 knots; 7.2 m/s)
Visibility:10 or more sm (16+ km)
Ceiling:1500 feet AGL
Clouds: overcast cloud deck at 1500 feet AGL
QC Flag:automated observation with no human augmentation
Text:K6B9 282315Z AUTO 17008KT 130V230 10SM OVC016 05/03 A2988 RMK AO2
Temperature: 5.0°C ( 41°F)
Dewpoint: 3.0°C ( 37°F) [RH = 87%]
Pressure (altimeter):29.88 inches Hg (1011.9 mb)
Winds:from the S (170 degrees) at 9 MPH (8 knots; 4.1 m/s)
Visibility:10 or more sm (16+ km)
Ceiling:1600 feet AGL
Clouds: overcast cloud deck at 1600 feet AGL
QC Flag:automated observation with no human augmentation
Text:K6B9 282255Z AUTO VRB03KT 10SM OVC016 05/03 A2988 RMK AO2 P0001
Temperature: 5.0°C ( 41°F)
Dewpoint: 3.0°C ( 37°F) [RH = 87%]
Pressure (altimeter):29.88 inches Hg (1011.9 mb)
Winds:variable direction winds at 3 MPH (3 knots; 1.5 m/s)
Visibility:10 or more sm (16+ km)
Ceiling:1600 feet AGL
Clouds: overcast cloud deck at 1600 feet AGL
QC Flag:automated observation with no human augmentation
Text:K6B9 282235Z AUTO VRB04KT 10SM -RA OVC016 05/03 A2989 RMK AO2
Temperature: 5.0°C ( 41°F)
Dewpoint: 3.0°C ( 37°F) [RH = 87%]
Pressure (altimeter):29.89 inches Hg (1012.3 mb)
Winds:variable direction winds at 5 MPH (4 knots; 2.1 m/s)
Visibility:10 or more sm (16+ km)
Ceiling:1600 feet AGL
Clouds: overcast cloud deck at 1600 feet AGL
Weather:-RA (light rain)
QC Flag:automated observation with no human augmentation
Text:K6B9 282215Z AUTO VRB04G10KT 5SM -RA OVC017 05/03 A2989 RMK AO2
Temperature: 5.0°C ( 41°F)
Dewpoint: 3.0°C ( 37°F) [RH = 87%]
Pressure (altimeter):29.89 inches Hg (1012.3 mb)
Winds:variable direction winds at 5 MPH (4 knots; 2.1 m/s) gusting to 12 MPH (10 knots; 5.1 m/s)
Visibility: 5 sm ( 8 km)
Ceiling:1700 feet AGL
Clouds: overcast cloud deck at 1700 feet AGL
Weather:-RA (light rain)
QC Flag:automated observation with no human augmentation
Text:K6B9 282155Z AUTO VRB05G16KT 10SM OVC017 05/02 A2991 RMK AO2
Temperature: 5.0°C ( 41°F)
Dewpoint: 2.0°C ( 36°F) [RH = 81%]
Pressure (altimeter):29.91 inches Hg (1013.0 mb)
Winds:variable direction winds at 6 MPH (5 knots; 2.6 m/s) gusting to 18 MPH (16 knots; 8.2 m/s)
Visibility:10 or more sm (16+ km)
Ceiling:1700 feet AGL
Clouds: overcast cloud deck at 1700 feet AGL
QC Flag:automated observation with no human augmentation
Text:K6B9 282135Z AUTO VRB06G11KT 10SM OVC018 05/02 A2991 RMK AO2
Temperature: 5.0°C ( 41°F)
Dewpoint: 2.0°C ( 36°F) [RH = 81%]
Pressure (altimeter):29.91 inches Hg (1013.0 mb)
Winds:variable direction winds at 7 MPH (6 knots; 3.1 m/s) gusting to 13 MPH (11 knots; 5.7 m/s)
Visibility:10 or more sm (16+ km)
Ceiling:1800 feet AGL
Clouds: overcast cloud deck at 1800 feet AGL
QC Flag:automated observation with no human augmentation
Text:K6B9 282115Z AUTO VRB05G11KT 10SM OVC019 05/02 A2992 RMK AO2
Temperature: 5.0°C ( 41°F)
Dewpoint: 2.0°C ( 36°F) [RH = 81%]
Pressure (altimeter):29.92 inches Hg (1013.3 mb)
Winds:variable direction winds at 6 MPH (5 knots; 2.6 m/s) gusting to 13 MPH (11 knots; 5.7 m/s)
Visibility:10 or more sm (16+ km)
Ceiling:1900 feet AGL
Clouds: overcast cloud deck at 1900 feet AGL
QC Flag:automated observation with no human augmentation
Text:K6B9 282055Z AUTO 19007G15KT 150V220 10SM OVC020 06/02 A2993 RMK AO2
Temperature: 6.0°C ( 43°F)
Dewpoint: 2.0°C ( 36°F) [RH = 75%]
Pressure (altimeter):29.93 inches Hg (1013.6 mb)
Winds:from the S (190 degrees) at 8 MPH (7 knots; 3.6 m/s) gusting to 17 MPH (15 knots; 7.7 m/s)
Visibility:10 or more sm (16+ km)
Ceiling:2000 feet AGL
Clouds: overcast cloud deck at 2000 feet AGL
QC Flag:automated observation with no human augmentation
Text:K6B9 282035Z AUTO VRB06G13KT 10SM OVC021 05/01 A2993 RMK AO2
Temperature: 5.0°C ( 41°F)
Dewpoint: 1.0°C ( 34°F) [RH = 75%]
Pressure (altimeter):29.93 inches Hg (1013.6 mb)
Winds:variable direction winds at 7 MPH (6 knots; 3.1 m/s) gusting to 15 MPH (13 knots; 6.7 m/s)
Visibility:10 or more sm (16+ km)
Ceiling:2100 feet AGL
Clouds: overcast cloud deck at 2100 feet AGL
QC Flag:automated observation with no human augmentation
Text:K6B9 282015Z AUTO 16008G17KT 10SM BKN022 05/01 A2993 RMK AO2
Temperature: 5.0°C ( 41°F)
Dewpoint: 1.0°C ( 34°F) [RH = 75%]
Pressure (altimeter):29.93 inches Hg (1013.6 mb)
Winds:from the SSE (160 degrees) at 9 MPH (8 knots; 4.1 m/s) gusting to 20 MPH (17 knots; 8.7 m/s)
Visibility:10 or more sm (16+ km)
Ceiling:2200 feet AGL
Clouds: broken clouds at 2200 feet AGL
QC Flag:automated observation with no human augmentation
Text:K6B9 281955Z AUTO 16010G24KT 120V200 10SM CLR 05/00 A2992 RMK AO2
Temperature: 5.0°C ( 41°F)
Dewpoint: 0.0°C ( 32°F) [RH = 70%]
Pressure (altimeter):29.92 inches Hg (1013.3 mb)
Winds:from the SSE (160 degrees) at 12 MPH (10 knots; 5.1 m/s) gusting to 28 MPH (24 knots; 12.3 m/s)
Visibility:10 or more sm (16+ km)
Ceiling:at least 12,000 feet AGL
Clouds:sky clear below 12,000 feet AGL
QC Flag:automated observation with no human augmentation
Text:K6B9 281935Z AUTO 14008G26KT 110V180 10SM FEW033 05/00 A2991 RMK AO2
Temperature: 5.0°C ( 41°F)
Dewpoint: 0.0°C ( 32°F) [RH = 70%]
Pressure (altimeter):29.91 inches Hg (1013.0 mb)
Winds:from the SE (140 degrees) at 9 MPH (8 knots; 4.1 m/s) gusting to 30 MPH (26 knots; 13.4 m/s)
Visibility:10 or more sm (16+ km)
Ceiling:at least 12,000 feet AGL
Clouds: few clouds at 3300 feet AGL
QC Flag:automated observation with no human augmentation
Text:K6B9 281915Z AUTO 14008G19KT 120V180 10SM BKN034 05/M00 A2994 RMK AO2
Temperature: 5.0°C ( 41°F)
Dewpoint: 0.0°C ( 32°F) [RH = 70%]
Pressure (altimeter):29.94 inches Hg (1014.0 mb)
Winds:from the SE (140 degrees) at 9 MPH (8 knots; 4.1 m/s) gusting to 22 MPH (19 knots; 9.8 m/s)
Visibility:10 or more sm (16+ km)
Ceiling:3400 feet AGL
Clouds: broken clouds at 3400 feet AGL
QC Flag:automated observation with no human augmentation
Text:K6B9 281855Z AUTO 14010G18KT 10SM OVC036 05/M01 A2997 RMK AO2
Temperature: 5.0°C ( 41°F)
Dewpoint: -1.0°C ( 30°F) [RH = 65%]
Pressure (altimeter):29.97 inches Hg (1015.0 mb)
Winds:from the SE (140 degrees) at 12 MPH (10 knots; 5.1 m/s) gusting to 21 MPH (18 knots; 9.3 m/s)
Visibility:10 or more sm (16+ km)
Ceiling:3600 feet AGL
Clouds: overcast cloud deck at 3600 feet AGL
QC Flag:automated observation with no human augmentation
Text:K6B9 281835Z AUTO 14011G24KT 10SM OVC040 05/M01 A3000 RMK AO2
Temperature: 5.0°C ( 41°F)
Dewpoint: -1.0°C ( 30°F) [RH = 65%]
Pressure (altimeter):30.00 inches Hg (1016.0 mb)
Winds:from the SE (140 degrees) at 13 MPH (11 knots; 5.7 m/s) gusting to 28 MPH (24 knots; 12.3 m/s)
Visibility:10 or more sm (16+ km)
Ceiling:4000 feet AGL
Clouds: overcast cloud deck at 4000 feet AGL
QC Flag:automated observation with no human augmentation
Text:K6B9 281815Z AUTO 13009G15KT 100V160 10SM OVC042 04/M01 A3002 RMK AO2
Temperature: 4.0°C ( 39°F)
Dewpoint: -1.0°C ( 30°F) [RH = 70%]
Pressure (altimeter):30.02 inches Hg (1016.7 mb)
Winds:from the SE (130 degrees) at 10 MPH (9 knots; 4.6 m/s) gusting to 17 MPH (15 knots; 7.7 m/s)
Visibility:10 or more sm (16+ km)
Ceiling:4200 feet AGL
Clouds: overcast cloud deck at 4200 feet AGL
QC Flag:automated observation with no human augmentation
Text:K6B9 281755Z AUTO 13009G17KT 10SM OVC044 04/M01 A3004 RMK AO2
Temperature: 4.0°C ( 39°F)
Dewpoint: -1.0°C ( 30°F) [RH = 70%]
Pressure (altimeter):30.04 inches Hg (1017.4 mb)
Winds:from the SE (130 degrees) at 10 MPH (9 knots; 4.6 m/s) gusting to 20 MPH (17 knots; 8.7 m/s)
Visibility:10 or more sm (16+ km)
Ceiling:4400 feet AGL
Clouds: overcast cloud deck at 4400 feet AGL
QC Flag:automated observation with no human augmentation
Text:K6B9 281735Z AUTO 12009G15KT 10SM OVC047 04/M01 A3007 RMK AO2
Temperature: 4.0°C ( 39°F)
Dewpoint: -1.0°C ( 30°F) [RH = 70%]
Pressure (altimeter):30.07 inches Hg (1018.4 mb)
Winds:from the ESE (120 degrees) at 10 MPH (9 knots; 4.6 m/s) gusting to 17 MPH (15 knots; 7.7 m/s)
Visibility:10 or more sm (16+ km)
Ceiling:4700 feet AGL
Clouds: overcast cloud deck at 4700 feet AGL
QC Flag:automated observation with no human augmentation
Text:K6B9 281715Z AUTO 13007G15KT 10SM OVC050 04/M01 A3011 RMK AO2
Temperature: 4.0°C ( 39°F)
Dewpoint: -1.0°C ( 30°F) [RH = 70%]
Pressure (altimeter):30.11 inches Hg (1019.7 mb)
Winds:from the SE (130 degrees) at 8 MPH (7 knots; 3.6 m/s) gusting to 17 MPH (15 knots; 7.7 m/s)
Visibility:10 or more sm (16+ km)
Ceiling:5000 feet AGL
Clouds: overcast cloud deck at 5000 feet AGL
QC Flag:automated observation with no human augmentation
Text:K6B9 281655Z AUTO 13012KT 10SM SCT050 BKN065 OVC110 04/M01 A3011 RMK AO2
Temperature: 4.0°C ( 39°F)
Dewpoint: -1.0°C ( 30°F) [RH = 70%]
Pressure (altimeter):30.11 inches Hg (1019.7 mb)
Winds:from the SE (130 degrees) at 14 MPH (12 knots; 6.2 m/s)
Visibility:10 or more sm (16+ km)
Ceiling:6500 feet AGL
Clouds: scattered clouds at 5000 feet AGL, broken clouds at 6500 feet AGL, overcast cloud deck at 11000 feet AGL
QC Flag:automated observation with no human augmentation
Text:K6B9 281635Z AUTO 12010G19KT 090V150 10SM BKN065 BKN120 04/M01 A3011 RMK AO2
Temperature: 4.0°C ( 39°F)
Dewpoint: -1.0°C ( 30°F) [RH = 70%]
Pressure (altimeter):30.11 inches Hg (1019.7 mb)
Winds:from the ESE (120 degrees) at 12 MPH (10 knots; 5.1 m/s) gusting to 22 MPH (19 knots; 9.8 m/s)
Visibility:10 or more sm (16+ km)
Ceiling:6500 feet AGL
Clouds: broken clouds at 6500 feet AGL, broken clouds at 12000 feet AGL
QC Flag:automated observation with no human augmentation
Text:K6B9 281615Z AUTO 12014G21KT 10SM BKN065 03/M01 A3012 RMK AO2
Temperature: 3.0°C ( 37°F)
Dewpoint: -1.0°C ( 30°F) [RH = 75%]
Pressure (altimeter):30.12 inches Hg (1020.1 mb)
Winds:from the ESE (120 degrees) at 16 MPH (14 knots; 7.2 m/s) gusting to 24 MPH (21 knots; 10.8 m/s)
Visibility:10 or more sm (16+ km)
Ceiling:6500 feet AGL
Clouds: broken clouds at 6500 feet AGL
QC Flag:automated observation with no human augmentation
Text:K6B9 281555Z AUTO 12009KT 10SM BKN065 03/M01 A3014 RMK AO2
Temperature: 3.0°C ( 37°F)
Dewpoint: -1.0°C ( 30°F) [RH = 75%]
Pressure (altimeter):30.14 inches Hg (1020.7 mb)
Winds:from the ESE (120 degrees) at 10 MPH (9 knots; 4.6 m/s)
Visibility:10 or more sm (16+ km)
Ceiling:6500 feet AGL
Clouds: broken clouds at 6500 feet AGL
QC Flag:automated observation with no human augmentation
Text:K6B9 281535Z AUTO 13008G15KT 100V160 10SM CLR 03/M00 A3013 RMK AO2
Temperature: 3.0°C ( 37°F)
Dewpoint: 0.0°C ( 32°F) [RH = 81%]
Pressure (altimeter):30.13 inches Hg (1020.4 mb)
Winds:from the SE (130 degrees) at 9 MPH (8 knots; 4.1 m/s) gusting to 17 MPH (15 knots; 7.7 m/s)
Visibility:10 or more sm (16+ km)
Ceiling:at least 12,000 feet AGL
Clouds:sky clear below 12,000 feet AGL
QC Flag:automated observation with no human augmentation
Text:K6B9 281515Z AUTO 12007G14KT 10SM CLR 02/00 A3017 RMK AO2
Temperature: 2.0°C ( 36°F)
Dewpoint: 0.0°C ( 32°F) [RH = 87%]
Pressure (altimeter):30.17 inches Hg (1021.8 mb)
Winds:from the ESE (120 degrees) at 8 MPH (7 knots; 3.6 m/s) gusting to 16 MPH (14 knots; 7.2 m/s)
Visibility:10 or more sm (16+ km)
Ceiling:at least 12,000 feet AGL
Clouds:sky clear below 12,000 feet AGL
QC Flag:automated observation with no human augmentation
Text:K6B9 281455Z AUTO 13010G19KT 10SM CLR 02/M00 A3018 RMK AO2
Temperature: 2.0°C ( 36°F)
Dewpoint: 0.0°C ( 32°F) [RH = 87%]
Pressure (altimeter):30.18 inches Hg (1022.1 mb)
Winds:from the SE (130 degrees) at 12 MPH (10 knots; 5.1 m/s) gusting to 22 MPH (19 knots; 9.8 m/s)
Visibility:10 or more sm (16+ km)
Ceiling:at least 12,000 feet AGL
Clouds:sky clear below 12,000 feet AGL
QC Flag:automated observation with no human augmentation
Text:K6B9 281435Z AUTO 13008KT 110V170 10SM CLR 02/M00 A3020 RMK AO2
Temperature: 2.0°C ( 36°F)
Dewpoint: 0.0°C ( 32°F) [RH = 87%]
Pressure (altimeter):30.20 inches Hg (1022.8 mb)
Winds:from the SE (130 degrees) at 9 MPH (8 knots; 4.1 m/s)
Visibility:10 or more sm (16+ km)
Ceiling:at least 12,000 feet AGL
Clouds:sky clear below 12,000 feet AGL
QC Flag:automated observation with no human augmentation
Text:K6B9 281415Z AUTO VRB06G11KT 10SM CLR 02/M00 A3023 RMK AO2
Temperature: 2.0°C ( 36°F)
Dewpoint: 0.0°C ( 32°F) [RH = 87%]
Pressure (altimeter):30.23 inches Hg (1023.8 mb)
Winds:variable direction winds at 7 MPH (6 knots; 3.1 m/s) gusting to 13 MPH (11 knots; 5.7 m/s)
Visibility:10 or more sm (16+ km)
Ceiling:at least 12,000 feet AGL
Clouds:sky clear below 12,000 feet AGL
QC Flag:automated observation with no human augmentation